sensor_id;sensor_type;location;lat;lon;timestamp;temperature;humidity
72650;SHT31;61467;50.674;4.618;2022-10-30T00:00:17;18.94;63.91
72650;SHT31;61467;50.674;4.618;2022-10-30T00:02:45;18.94;63.76
72650;SHT31;61467;50.674;4.618;2022-10-30T00:05:12;18.94;63.84
72650;SHT31;61467;50.674;4.618;2022-10-30T00:07:38;18.87;64.03
72650;SHT31;61467;50.674;4.618;2022-10-30T00:10:07;18.88;63.94
72650;SHT31;61467;50.674;4.618;2022-10-30T00:12:34;18.73;64.49
72650;SHT31;61467;50.674;4.618;2022-10-30T00:15:01;18.73;64.40
72650;SHT31;61467;50.674;4.618;2022-10-30T00:17:28;18.64;64.50
72650;SHT31;61467;50.674;4.618;2022-10-30T00:19:54;18.75;64.43
72650;SHT31;61467;50.674;4.618;2022-10-30T00:22:21;18.63;64.70
72650;SHT31;61467;50.674;4.618;2022-10-30T00:24:47;18.63;64.73
72650;SHT31;61467;50.674;4.618;2022-10-30T00:27:15;18.71;64.57
72650;SHT31;61467;50.674;4.618;2022-10-30T00:29:42;18.67;64.68
72650;SHT31;61467;50.674;4.618;2022-10-30T00:32:09;18.67;64.77
72650;SHT31;61467;50.674;4.618;2022-10-30T00:34:36;18.73;64.66
72650;SHT31;61467;50.674;4.618;2022-10-30T00:37:03;18.70;64.69
72650;SHT31;61467;50.674;4.618;2022-10-30T00:39:29;18.70;64.72
72650;SHT31;61467;50.674;4.618;2022-10-30T00:41:56;18.56;64.88
72650;SHT31;61467;50.674;4.618;2022-10-30T00:44:36;18.54;65.07
72650;SHT31;61467;50.674;4.618;2022-10-30T00:47:06;18.61;64.96
72650;SHT31;61467;50.674;4.618;2022-10-30T00:49:38;18.53;65.29
72650;SHT31;61467;50.674;4.618;2022-10-30T00:52:09;18.54;65.30
72650;SHT31;61467;50.674;4.618;2022-10-30T00:54:36;18.43;65.44
72650;SHT31;61467;50.674;4.618;2022-10-30T00:57:05;18.53;65.42
72650;SHT31;61467;50.674;4.618;2022-10-30T00:59:35;18.44;65.60
72650;SHT31;61467;50.674;4.618;2022-10-30T01:02:03;18.44;65.75
72650;SHT31;61467;50.674;4.618;2022-10-30T01:04:31;18.46;65.79
72650;SHT31;61467;50.674;4.618;2022-10-30T01:07:04;18.42;65.82
72650;SHT31;61467;50.674;4.618;2022-10-30T01:09:32;18.34;66.04
72650;SHT31;61467;50.674;4.618;2022-10-30T01:11:59;18.39;65.90
72650;SHT31;61467;50.674;4.618;2022-10-30T01:14:26;18.36;65.96
72650;SHT31;61467;50.674;4.618;2022-10-30T01:17:15;18.34;66.02
72650;SHT31;61467;50.674;4.618;2022-10-30T01:19:53;18.36;65.90
72650;SHT31;61467;50.674;4.618;2022-10-30T01:22:38;18.26;66.21
72650;SHT31;61467;50.674;4.618;2022-10-30T01:25:14;18.32;66.08
72650;SHT31;61467;50.674;4.618;2022-10-30T01:27:56;18.28;66.22
72650;SHT31;61467;50.674;4.618;2022-10-30T01:30:35;18.25;66.32
72650;SHT31;61467;50.674;4.618;2022-10-30T01:33:15;18.14;66.70
72650;SHT31;61467;50.674;4.618;2022-10-30T01:35:56;18.12;66.79
72650;SHT31;61467;50.674;4.618;2022-10-30T01:38:29;18.14;66.80
72650;SHT31;61467;50.674;4.618;2022-10-30T01:40:57;18.17;66.80
72650;SHT31;61467;50.674;4.618;2022-10-30T01:43:24;18.12;66.94
72650;SHT31;61467;50.674;4.618;2022-10-30T01:49:14;18.02;67.08
72650;SHT31;61467;50.674;4.618;2022-10-30T01:51:55;17.95;67.31
72650;SHT31;61467;50.674;4.618;2022-10-30T01:54:31;17.93;67.40
72650;SHT31;61467;50.674;4.618;2022-10-30T01:57:06;17.99;67.28
72650;SHT31;61467;50.674;4.618;2022-10-30T01:59:36;17.96;67.38
72650;SHT31;61467;50.674;4.618;2022-10-30T02:02:04;17.96;67.31
72650;SHT31;61467;50.674;4.618;2022-10-30T02:04:33;17.95;67.43
72650;SHT31;61467;50.674;4.618;2022-10-30T02:07:00;17.93;67.54
72650;SHT31;61467;50.674;4.618;2022-10-30T02:09:27;17.86;67.74
72650;SHT31;61467;50.674;4.618;2022-10-30T02:11:54;17.89;67.62
72650;SHT31;61467;50.674;4.618;2022-10-30T02:14:24;17.88;67.59
72650;SHT31;61467;50.674;4.618;2022-10-30T02:16:53;17.89;67.62
72650;SHT31;61467;50.674;4.618;2022-10-30T02:19:22;17.83;67.64
72650;SHT31;61467;50.674;4.618;2022-10-30T02:21:51;17.82;67.64
72650;SHT31;61467;50.674;4.618;2022-10-30T02:24:17;17.81;67.65
72650;SHT31;61467;50.674;4.618;2022-10-30T02:26:44;17.75;67.72
72650;SHT31;61467;50.674;4.618;2022-10-30T02:29:11;17.74;67.86
72650;SHT31;61467;50.674;4.618;2022-10-30T02:31:37;17.78;67.71
72650;SHT31;61467;50.674;4.618;2022-10-30T02:34:04;17.79;67.82
72650;SHT31;61467;50.674;4.618;2022-10-30T02:36:31;17.81;67.77
72650;SHT31;61467;50.674;4.618;2022-10-30T02:38:59;17.81;67.77
72650;SHT31;61467;50.674;4.618;2022-10-30T02:41:26;17.71;67.90
72650;SHT31;61467;50.674;4.618;2022-10-30T02:43:52;17.61;67.99
72650;SHT31;61467;50.674;4.618;2022-10-30T02:46:19;17.67;68.07
72650;SHT31;61467;50.674;4.618;2022-10-30T02:48:46;17.61;68.02
72650;SHT31;61467;50.674;4.618;2022-10-30T02:51:12;17.60;68.29
72650;SHT31;61467;50.674;4.618;2022-10-30T02:53:39;17.61;68.31
72650;SHT31;61467;50.674;4.618;2022-10-30T02:56:09;17.58;68.23
72650;SHT31;61467;50.674;4.618;2022-10-30T02:58:36;17.55;68.43
72650;SHT31;61467;50.674;4.618;2022-10-30T03:01:07;17.50;68.55
72650;SHT31;61467;50.674;4.618;2022-10-30T03:03:34;17.38;68.69
72650;SHT31;61467;50.674;4.618;2022-10-30T03:06:00;17.44;68.78
72650;SHT31;61467;50.674;4.618;2022-10-30T03:08:27;17.43;68.81
72650;SHT31;61467;50.674;4.618;2022-10-30T03:10:59;17.52;68.57
72650;SHT31;61467;50.674;4.618;2022-10-30T03:13:28;17.33;68.98
72650;SHT31;61467;50.674;4.618;2022-10-30T03:15:59;17.37;68.89
72650;SHT31;61467;50.674;4.618;2022-10-30T03:18:26;17.41;68.85
72650;SHT31;61467;50.674;4.618;2022-10-30T03:20:55;17.35;68.82
72650;SHT31;61467;50.674;4.618;2022-10-30T03:23:23;17.41;68.90
72650;SHT31;61467;50.674;4.618;2022-10-30T03:25:51;17.37;68.98
72650;SHT31;61467;50.674;4.618;2022-10-30T03:28:18;17.41;68.89
72650;SHT31;61467;50.674;4.618;2022-10-30T03:30:46;17.35;68.76
72650;SHT31;61467;50.674;4.618;2022-10-30T03:33:13;17.31;69.03
72650;SHT31;61467;50.674;4.618;2022-10-30T03:35:42;17.31;68.94
72650;SHT31;61467;50.674;4.618;2022-10-30T03:38:08;17.31;68.85
72650;SHT31;61467;50.674;4.618;2022-10-30T03:40:35;17.37;68.93
72650;SHT31;61467;50.674;4.618;2022-10-30T03:43:02;17.28;69.19
72650;SHT31;61467;50.674;4.618;2022-10-30T03:45:29;17.33;68.85
72650;SHT31;61467;50.674;4.618;2022-10-30T03:47:58;17.33;68.81
72650;SHT31;61467;50.674;4.618;2022-10-30T03:50:25;17.31;68.86
72650;SHT31;61467;50.674;4.618;2022-10-30T03:52:52;17.34;68.83
72650;SHT31;61467;50.674;4.618;2022-10-30T03:55:19;17.21;69.18
72650;SHT31;61467;50.674;4.618;2022-10-30T03:57:46;17.20;69.24
72650;SHT31;61467;50.674;4.618;2022-10-30T04:00:13;17.20;69.05
72650;SHT31;61467;50.674;4.618;2022-10-30T04:02:44;17.21;69.04
72650;SHT31;61467;50.674;4.618;2022-10-30T04:05:12;17.17;69.14
72650;SHT31;61467;50.674;4.618;2022-10-30T04:07:39;17.20;69.12
72650;SHT31;61467;50.674;4.618;2022-10-30T04:10:06;17.17;69.06
72650;SHT31;61467;50.674;4.618;2022-10-30T04:12:33;17.10;69.36
72650;SHT31;61467;50.674;4.618;2022-10-30T04:14:59;17.14;69.46
72650;SHT31;61467;50.674;4.618;2022-10-30T04:17:26;17.14;69.20
72650;SHT31;61467;50.674;4.618;2022-10-30T04:19:52;17.13;69.21
72650;SHT31;61467;50.674;4.618;2022-10-30T04:22:20;17.14;69.23
72650;SHT31;61467;50.674;4.618;2022-10-30T04:24:47;17.13;69.26
72650;SHT31;61467;50.674;4.618;2022-10-30T04:27:14;17.02;69.32
72650;SHT31;61467;50.674;4.618;2022-10-30T04:29:41;16.93;69.57
72650;SHT31;61467;50.674;4.618;2022-10-30T04:32:08;16.99;69.55
72650;SHT31;61467;50.674;4.618;2022-10-30T04:34:35;17.07;69.21
72650;SHT31;61467;50.674;4.618;2022-10-30T04:37:03;17.06;69.30
72650;SHT31;61467;50.674;4.618;2022-10-30T04:39:31;16.99;69.27
72650;SHT31;61467;50.674;4.618;2022-10-30T04:41:58;16.87;69.75
72650;SHT31;61467;50.674;4.618;2022-10-30T04:44:25;16.97;69.48
72650;SHT31;61467;50.674;4.618;2022-10-30T04:46:51;17.00;69.35
72650;SHT31;61467;50.674;4.618;2022-10-30T04:49:18;17.02;69.24
72650;SHT31;61467;50.674;4.618;2022-10-30T04:51:45;16.96;69.29
72650;SHT31;61467;50.674;4.618;2022-10-30T04:54:11;16.97;69.26
72650;SHT31;61467;50.674;4.618;2022-10-30T04:56:39;16.97;69.28
72650;SHT31;61467;50.674;4.618;2022-10-30T04:59:06;16.89;69.70
72650;SHT31;61467;50.674;4.618;2022-10-30T05:01:33;16.84;69.83
72650;SHT31;61467;50.674;4.618;2022-10-30T05:04:00;16.56;70.62
72650;SHT31;61467;50.674;4.618;2022-10-30T05:06:28;16.65;70.28
72650;SHT31;61467;50.674;4.618;2022-10-30T05:08:55;16.71;70.19
72650;SHT31;61467;50.674;4.618;2022-10-30T05:11:22;16.90;69.72
72650;SHT31;61467;50.674;4.618;2022-10-30T05:13:50;16.84;69.50
72650;SHT31;61467;50.674;4.618;2022-10-30T05:16:17;16.76;69.99
72650;SHT31;61467;50.674;4.618;2022-10-30T05:18:43;16.77;70.04
72650;SHT31;61467;50.674;4.618;2022-10-30T05:21:10;16.86;69.62
72650;SHT31;61467;50.674;4.618;2022-10-30T05:23:36;16.83;69.70
72650;SHT31;61467;50.674;4.618;2022-10-30T05:26:03;16.83;69.57
72650;SHT31;61467;50.674;4.618;2022-10-30T05:28:30;16.83;69.74
72650;SHT31;61467;50.674;4.618;2022-10-30T05:30:58;16.92;69.88
72650;SHT31;61467;50.674;4.618;2022-10-30T05:33:25;16.93;69.45
72650;SHT31;61467;50.674;4.618;2022-10-30T05:35:51;16.84;69.69
72650;SHT31;61467;50.674;4.618;2022-10-30T05:38:18;16.75;70.04
72650;SHT31;61467;50.674;4.618;2022-10-30T05:40:45;16.93;70.23
72650;SHT31;61467;50.674;4.618;2022-10-30T05:43:12;16.86;69.45
72650;SHT31;61467;50.674;4.618;2022-10-30T05:45:39;16.89;69.32
72650;SHT31;61467;50.674;4.618;2022-10-30T05:48:07;16.96;69.27
72650;SHT31;61467;50.674;4.618;2022-10-30T05:50:34;16.94;69.20
72650;SHT31;61467;50.674;4.618;2022-10-30T05:53:02;16.83;69.57
72650;SHT31;61467;50.674;4.618;2022-10-30T05:55:29;16.80;69.61
72650;SHT31;61467;50.674;4.618;2022-10-30T05:57:57;16.82;69.36
72650;SHT31;61467;50.674;4.618;2022-10-30T06:00:24;16.84;69.59
72650;SHT31;61467;50.674;4.618;2022-10-30T06:02:50;16.69;69.86
72650;SHT31;61467;50.674;4.618;2022-10-30T06:05:19;16.62;70.15
72650;SHT31;61467;50.674;4.618;2022-10-30T06:07:45;16.93;69.72
72650;SHT31;61467;50.674;4.618;2022-10-30T06:10:12;16.86;69.01
72650;SHT31;61467;50.674;4.618;2022-10-30T06:12:40;16.86;69.12
72650;SHT31;61467;50.674;4.618;2022-10-30T06:15:07;16.82;69.26
72650;SHT31;61467;50.674;4.618;2022-10-30T06:17:33;16.66;69.55
72650;SHT31;61467;50.674;4.618;2022-10-30T06:20:00;16.65;69.67
72650;SHT31;61467;50.674;4.618;2022-10-30T06:22:28;16.59;69.95
72650;SHT31;61467;50.674;4.618;2022-10-30T06:24:55;16.44;70.16
72650;SHT31;61467;50.674;4.618;2022-10-30T06:27:22;16.42;70.21
72650;SHT31;61467;50.674;4.618;2022-10-30T06:29:48;16.31;70.64
72650;SHT31;61467;50.674;4.618;2022-10-30T06:32:15;16.36;70.39
72650;SHT31;61467;50.674;4.618;2022-10-30T06:34:42;16.44;70.06
72650;SHT31;61467;50.674;4.618;2022-10-30T06:37:09;16.40;70.40
72650;SHT31;61467;50.674;4.618;2022-10-30T06:39:37;16.32;70.52
72650;SHT31;61467;50.674;4.618;2022-10-30T06:42:04;16.32;70.43
72650;SHT31;61467;50.674;4.618;2022-10-30T06:44:30;16.34;70.19
72650;SHT31;61467;50.674;4.618;2022-10-30T06:46:57;16.40;70.30
72650;SHT31;61467;50.674;4.618;2022-10-30T06:49:24;16.20;70.93
72650;SHT31;61467;50.674;4.618;2022-10-30T06:51:50;16.34;70.63
72650;SHT31;61467;50.674;4.618;2022-10-30T06:54:17;16.42;70.03
72650;SHT31;61467;50.674;4.618;2022-10-30T06:56:49;16.24;70.60
72650;SHT31;61467;50.674;4.618;2022-10-30T06:59:16;16.31;70.27
72650;SHT31;61467;50.674;4.618;2022-10-30T07:01:43;16.24;70.68
72650;SHT31;61467;50.674;4.618;2022-10-30T07:04:09;16.40;69.99
72650;SHT31;61467;50.674;4.618;2022-10-30T07:06:36;16.31;70.27
72650;SHT31;61467;50.674;4.618;2022-10-30T07:09:03;16.34;70.20
72650;SHT31;61467;50.674;4.618;2022-10-30T07:11:29;16.32;70.48
72650;SHT31;61467;50.674;4.618;2022-10-30T07:13:58;16.45;69.95
72650;SHT31;61467;50.674;4.618;2022-10-30T07:16:24;16.44;69.64
72650;SHT31;61467;50.674;4.618;2022-10-30T07:18:51;16.47;69.54
72650;SHT31;61467;50.674;4.618;2022-10-30T07:21:18;16.53;69.43
72650;SHT31;61467;50.674;4.618;2022-10-30T07:23:44;16.52;69.80
72650;SHT31;61467;50.674;4.618;2022-10-30T07:26:11;16.59;69.40
72650;SHT31;61467;50.674;4.618;2022-10-30T07:28:37;16.61;69.41
72650;SHT31;61467;50.674;4.618;2022-10-30T07:31:06;16.53;69.24
72650;SHT31;61467;50.674;4.618;2022-10-30T07:33:32;16.63;68.94
72650;SHT31;61467;50.674;4.618;2022-10-30T07:35:59;16.65;69.28
72650;SHT31;61467;50.674;4.618;2022-10-30T07:38:26;16.58;69.17
72650;SHT31;61467;50.674;4.618;2022-10-30T07:40:53;16.58;69.12
72650;SHT31;61467;50.674;4.618;2022-10-30T07:43:19;16.76;68.85
72650;SHT31;61467;50.674;4.618;2022-10-30T07:45:46;16.89;68.78
72650;SHT31;61467;50.674;4.618;2022-10-30T07:48:14;16.76;68.68
72650;SHT31;61467;50.674;4.618;2022-10-30T07:50:41;16.89;68.63
72650;SHT31;61467;50.674;4.618;2022-10-30T07:53:07;16.86;68.59
72650;SHT31;61467;50.674;4.618;2022-10-30T07:55:35;16.93;69.10
72650;SHT31;61467;50.674;4.618;2022-10-30T07:58:02;17.00;68.11
72650;SHT31;61467;50.674;4.618;2022-10-30T08:00:29;17.12;68.91
72650;SHT31;61467;50.674;4.618;2022-10-30T08:02:56;17.09;68.53
72650;SHT31;61467;50.674;4.618;2022-10-30T08:05:24;17.09;68.19
72650;SHT31;61467;50.674;4.618;2022-10-30T08:07:51;17.07;68.33
72650;SHT31;61467;50.674;4.618;2022-10-30T08:10:17;17.12;67.93
72650;SHT31;61467;50.674;4.618;2022-10-30T08:12:44;17.17;67.83
72650;SHT31;61467;50.674;4.618;2022-10-30T08:15:12;17.27;67.51
72650;SHT31;61467;50.674;4.618;2022-10-30T08:17:43;17.06;68.29
72650;SHT31;61467;50.674;4.618;2022-10-30T08:20:12;17.16;67.92
72650;SHT31;61467;50.674;4.618;2022-10-30T08:22:47;17.17;68.07
72650;SHT31;61467;50.674;4.618;2022-10-30T08:25:16;17.28;68.63
72650;SHT31;61467;50.674;4.618;2022-10-30T08:27:51;17.51;67.81
72650;SHT31;61467;50.674;4.618;2022-10-30T08:30:19;17.77;66.74
72650;SHT31;61467;50.674;4.618;2022-10-30T08:32:46;17.98;65.75
72650;SHT31;61467;50.674;4.618;2022-10-30T08:35:12;18.03;65.75
72650;SHT31;61467;50.674;4.618;2022-10-30T08:37:40;17.99;65.60
72650;SHT31;61467;50.674;4.618;2022-10-30T08:40:10;18.02;65.65
72650;SHT31;61467;50.674;4.618;2022-10-30T08:42:36;18.02;65.47
72650;SHT31;61467;50.674;4.618;2022-10-30T08:45:04;18.10;65.53
72650;SHT31;61467;50.674;4.618;2022-10-30T08:47:31;18.02;65.26
72650;SHT31;61467;50.674;4.618;2022-10-30T08:49:57;18.34;64.68
72650;SHT31;61467;50.674;4.618;2022-10-30T08:52:24;18.26;65.22
72650;SHT31;61467;50.674;4.618;2022-10-30T08:54:51;18.22;64.91
72650;SHT31;61467;50.674;4.618;2022-10-30T08:57:20;18.13;65.01
72650;SHT31;61467;50.674;4.618;2022-10-30T08:59:46;18.59;63.62
72650;SHT31;61467;50.674;4.618;2022-10-30T09:02:13;18.47;63.37
72650;SHT31;61467;50.674;4.618;2022-10-30T09:04:39;18.61;63.69
72650;SHT31;61467;50.674;4.618;2022-10-30T09:07:06;18.61;63.67
72650;SHT31;61467;50.674;4.618;2022-10-30T09:09:33;18.77;63.71
72650;SHT31;61467;50.674;4.618;2022-10-30T09:12:00;18.83;63.38
72650;SHT31;61467;50.674;4.618;2022-10-30T09:14:28;19.00;63.38
72650;SHT31;61467;50.674;4.618;2022-10-30T09:16:54;18.90;62.87
72650;SHT31;61467;50.674;4.618;2022-10-30T09:19:21;19.10;63.15
72650;SHT31;61467;50.674;4.618;2022-10-30T09:21:48;19.19;62.80
72650;SHT31;61467;50.674;4.618;2022-10-30T09:24:15;19.33;63.64
72650;SHT31;61467;50.674;4.618;2022-10-30T09:26:42;19.52;62.65
72650;SHT31;61467;50.674;4.618;2022-10-30T09:29:08;19.51;61.93
72650;SHT31;61467;50.674;4.618;2022-10-30T09:31:37;19.53;62.10
72650;SHT31;61467;50.674;4.618;2022-10-30T09:34:03;19.43;62.60
72650;SHT31;61467;50.674;4.618;2022-10-30T09:36:30;19.63;62.61
72650;SHT31;61467;50.674;4.618;2022-10-30T09:38:57;19.65;61.80
72650;SHT31;61467;50.674;4.618;2022-10-30T09:41:41;19.77;62.05
72650;SHT31;61467;50.674;4.618;2022-10-30T09:44:21;19.74;61.62
72650;SHT31;61467;50.674;4.618;2022-10-30T09:47:01;19.79;61.43
72650;SHT31;61467;50.674;4.618;2022-10-30T09:49:54;19.94;61.47
72650;SHT31;61467;50.674;4.618;2022-10-30T09:52:28;20.01;60.53
72650;SHT31;61467;50.674;4.618;2022-10-30T09:55:07;20.11;60.52
72650;SHT31;61467;50.674;4.618;2022-10-30T09:57:43;20.21;59.85
72650;SHT31;61467;50.674;4.618;2022-10-30T10:00:16;20.27;59.74
72650;SHT31;61467;50.674;4.618;2022-10-30T10:02:52;20.32;59.91
72650;SHT31;61467;50.674;4.618;2022-10-30T10:05:24;20.42;59.38
72650;SHT31;61467;50.674;4.618;2022-10-30T10:07:56;20.58;59.29
72650;SHT31;61467;50.674;4.618;2022-10-30T10:10:27;20.35;59.25
72650;SHT31;61467;50.674;4.618;2022-10-30T10:12:58;20.42;59.15
72650;SHT31;61467;50.674;4.618;2022-10-30T10:15:33;20.47;59.53
72650;SHT31;61467;50.674;4.618;2022-10-30T10:18:12;20.62;59.36
72650;SHT31;61467;50.674;4.618;2022-10-30T10:20:44;20.69;58.25
72650;SHT31;61467;50.674;4.618;2022-10-30T10:23:16;20.81;58.86
72650;SHT31;61467;50.674;4.618;2022-10-30T10:25:50;20.72;58.24
72650;SHT31;61467;50.674;4.618;2022-10-30T10:31:26;20.75;59.05
72650;SHT31;61467;50.674;4.618;2022-10-30T10:34:08;21.10;58.34
72650;SHT31;61467;50.674;4.618;2022-10-30T10:36:44;21.29;56.96
72650;SHT31;61467;50.674;4.618;2022-10-30T10:39:27;21.14;56.59
72650;SHT31;61467;50.674;4.618;2022-10-30T10:42:07;21.12;57.03
72650;SHT31;61467;50.674;4.618;2022-10-30T10:44:46;21.30;57.17
72650;SHT31;61467;50.674;4.618;2022-10-30T10:47:38;21.58;56.63
72650;SHT31;61467;50.674;4.618;2022-10-30T10:50:18;21.82;56.17
72650;SHT31;61467;50.674;4.618;2022-10-30T10:52:51;21.77;55.70
72650;SHT31;61467;50.674;4.618;2022-10-30T10:55:26;21.95;55.83
72650;SHT31;61467;50.674;4.618;2022-10-30T10:57:57;21.81;56.05
72650;SHT31;61467;50.674;4.618;2022-10-30T11:00:25;21.97;56.01
72650;SHT31;61467;50.674;4.618;2022-10-30T11:02:57;21.90;55.46
72650;SHT31;61467;50.674;4.618;2022-10-30T11:05:31;21.80;55.38
72650;SHT31;61467;50.674;4.618;2022-10-30T11:08:05;21.73;56.12
72650;SHT31;61467;50.674;4.618;2022-10-30T11:10:35;21.62;56.93
72650;SHT31;61467;50.674;4.618;2022-10-30T11:13:02;21.73;56.60
72650;SHT31;61467;50.674;4.618;2022-10-30T11:15:36;22.04;56.22
72650;SHT31;61467;50.674;4.618;2022-10-30T11:18:06;22.04;55.32
72650;SHT31;61467;50.674;4.618;2022-10-30T11:20:41;22.13;55.57
72650;SHT31;61467;50.674;4.618;2022-10-30T11:23:32;22.09;55.56
72650;SHT31;61467;50.674;4.618;2022-10-30T11:25:59;22.04;56.49
72650;SHT31;61467;50.674;4.618;2022-10-30T11:28:39;22.22;55.30
72650;SHT31;61467;50.674;4.618;2022-10-30T11:31:17;22.48;55.68
72650;SHT31;61467;50.674;4.618;2022-10-30T11:33:45;22.55;55.22
72650;SHT31;61467;50.674;4.618;2022-10-30T11:36:15;22.57;55.54
72650;SHT31;61467;50.674;4.618;2022-10-30T11:38:42;22.52;53.81
72650;SHT31;61467;50.674;4.618;2022-10-30T11:41:10;22.45;53.74
72650;SHT31;61467;50.674;4.618;2022-10-30T11:43:41;22.35;55.12
72650;SHT31;61467;50.674;4.618;2022-10-30T11:46:20;21.97;54.60
72650;SHT31;61467;50.674;4.618;2022-10-30T11:48:48;21.95;55.45
72650;SHT31;61467;50.674;4.618;2022-10-30T11:51:31;22.06;55.17
72650;SHT31;61467;50.674;4.618;2022-10-30T11:54:00;22.18;55.67
72650;SHT31;61467;50.674;4.618;2022-10-30T11:56:27;22.29;55.21
72650;SHT31;61467;50.674;4.618;2022-10-30T11:58:57;22.22;55.33
72650;SHT31;61467;50.674;4.618;2022-10-30T12:01:27;22.25;55.03
72650;SHT31;61467;50.674;4.618;2022-10-30T12:03:55;22.19;55.70
72650;SHT31;61467;50.674;4.618;2022-10-30T12:06:27;22.26;55.29
72650;SHT31;61467;50.674;4.618;2022-10-30T12:09:07;21.97;55.59
72650;SHT31;61467;50.674;4.618;2022-10-30T12:11:37;22.02;55.90
72650;SHT31;61467;50.674;4.618;2022-10-30T12:14:15;21.95;55.76
72650;SHT31;61467;50.674;4.618;2022-10-30T12:16:44;22.05;57.47
72650;SHT31;61467;50.674;4.618;2022-10-30T12:19:12;22.12;55.85
72650;SHT31;61467;50.674;4.618;2022-10-30T12:21:43;22.05;55.06
72650;SHT31;61467;50.674;4.618;2022-10-30T12:24:16;21.95;55.22
72650;SHT31;61467;50.674;4.618;2022-10-30T12:26:45;22.08;55.61
72650;SHT31;61467;50.674;4.618;2022-10-30T12:29:14;22.15;55.88
72650;SHT31;61467;50.674;4.618;2022-10-30T12:31:47;22.06;55.41
72650;SHT31;61467;50.674;4.618;2022-10-30T12:34:26;22.11;55.13
72650;SHT31;61467;50.674;4.618;2022-10-30T12:37:01;21.95;56.32
72650;SHT31;61467;50.674;4.618;2022-10-30T12:39:40;22.23;55.06
72650;SHT31;61467;50.674;4.618;2022-10-30T12:42:13;22.04;55.32
72650;SHT31;61467;50.674;4.618;2022-10-30T12:44:42;22.23;55.13
72650;SHT31;61467;50.674;4.618;2022-10-30T12:47:15;22.15;55.38
72650;SHT31;61467;50.674;4.618;2022-10-30T12:49:48;22.15;55.12
72650;SHT31;61467;50.674;4.618;2022-10-30T12:52:19;22.12;54.37
72650;SHT31;61467;50.674;4.618;2022-10-30T12:54:50;21.87;54.54
72650;SHT31;61467;50.674;4.618;2022-10-30T12:57:23;21.84;54.76
72650;SHT31;61467;50.674;4.618;2022-10-30T12:59:59;22.11;54.77
72650;SHT31;61467;50.674;4.618;2022-10-30T13:02:38;21.99;55.05
72650;SHT31;61467;50.674;4.618;2022-10-30T13:05:17;21.95;55.38
72650;SHT31;61467;50.674;4.618;2022-10-30T13:07:50;22.04;55.25
72650;SHT31;61467;50.674;4.618;2022-10-30T13:10:30;22.09;55.41
72650;SHT31;61467;50.674;4.618;2022-10-30T13:13:02;22.11;54.82
72650;SHT31;61467;50.674;4.618;2022-10-30T13:15:34;22.25;55.07
72650;SHT31;61467;50.674;4.618;2022-10-30T13:18:13;21.95;54.01
72650;SHT31;61467;50.674;4.618;2022-10-30T13:20:44;22.11;54.74
72650;SHT31;61467;50.674;4.618;2022-10-30T13:23:17;21.99;55.17
72650;SHT31;61467;50.674;4.618;2022-10-30T13:25:56;21.87;54.69
72650;SHT31;61467;50.674;4.618;2022-10-30T13:28:27;21.87;55.08
72650;SHT31;61467;50.674;4.618;2022-10-30T13:30:59;21.87;55.78
72650;SHT31;61467;50.674;4.618;2022-10-30T13:33:34;22.01;54.39
72650;SHT31;61467;50.674;4.618;2022-10-30T13:36:06;22.04;55.20
72650;SHT31;61467;50.674;4.618;2022-10-30T13:38:43;22.15;54.90
72650;SHT31;61467;50.674;4.618;2022-10-30T13:41:29;22.02;55.50
72650;SHT31;61467;50.674;4.618;2022-10-30T13:44:04;22.05;55.41
72650;SHT31;61467;50.674;4.618;2022-10-30T13:46:47;22.09;55.32
72650;SHT31;61467;50.674;4.618;2022-10-30T13:49:34;22.04;55.59
72650;SHT31;61467;50.674;4.618;2022-10-30T13:52:11;21.71;55.84
72650;SHT31;61467;50.674;4.618;2022-10-30T13:54:42;21.91;56.35
72650;SHT31;61467;50.674;4.618;2022-10-30T13:57:16;21.87;57.47
72650;SHT31;61467;50.674;4.618;2022-10-30T13:59:54;21.84;56.32
72650;SHT31;61467;50.674;4.618;2022-10-30T14:02:32;21.85;57.63
72650;SHT31;61467;50.674;4.618;2022-10-30T14:05:13;21.73;56.64
72650;SHT31;61467;50.674;4.618;2022-10-30T14:07:46;21.77;56.89
72650;SHT31;61467;50.674;4.618;2022-10-30T14:10:21;21.92;57.27
72650;SHT31;61467;50.674;4.618;2022-10-30T14:13:12;21.50;58.17
72650;SHT31;61467;50.674;4.618;2022-10-30T14:15:41;21.55;58.76
72650;SHT31;61467;50.674;4.618;2022-10-30T14:21:30;21.50;58.73
72650;SHT31;61467;50.674;4.618;2022-10-30T14:24:04;21.73;59.82
72650;SHT31;61467;50.674;4.618;2022-10-30T14:26:36;21.57;58.65
72650;SHT31;61467;50.674;4.618;2022-10-30T14:29:37;21.54;59.15
72650;SHT31;61467;50.674;4.618;2022-10-30T14:32:39;21.37;58.18
72650;SHT31;61467;50.674;4.618;2022-10-30T14:35:36;21.16;58.93
72650;SHT31;61467;50.674;4.618;2022-10-30T14:38:25;21.06;58.82
72650;SHT31;61467;50.674;4.618;2022-10-30T14:41:10;21.10;59.04
72650;SHT31;61467;50.674;4.618;2022-10-30T14:43:44;21.27;59.11
72650;SHT31;61467;50.674;4.618;2022-10-30T14:46:20;21.19;59.18
72650;SHT31;61467;50.674;4.618;2022-10-30T14:48:58;21.10;59.22
72650;SHT31;61467;50.674;4.618;2022-10-30T14:51:32;21.00;59.88
72650;SHT31;61467;50.674;4.618;2022-10-30T14:54:06;20.81;60.04
72650;SHT31;61467;50.674;4.618;2022-10-30T14:56:43;20.88;60.35
72650;SHT31;61467;50.674;4.618;2022-10-30T14:59:30;20.67;60.99
72650;SHT31;61467;50.674;4.618;2022-10-30T15:02:16;20.53;61.11
72650;SHT31;61467;50.674;4.618;2022-10-30T15:04:59;20.51;61.30
72650;SHT31;61467;50.674;4.618;2022-10-30T15:07:32;20.49;61.59
72650;SHT31;61467;50.674;4.618;2022-10-30T15:10:10;20.55;61.54
72650;SHT31;61467;50.674;4.618;2022-10-30T15:13:01;20.37;62.01
72650;SHT31;61467;50.674;4.618;2022-10-30T15:15:31;20.44;62.14
72650;SHT31;61467;50.674;4.618;2022-10-30T15:18:02;20.32;61.85
72650;SHT31;61467;50.674;4.618;2022-10-30T15:20:31;20.14;61.60
72650;SHT31;61467;50.674;4.618;2022-10-30T15:23:02;20.17;61.69
72650;SHT31;61467;50.674;4.618;2022-10-30T15:25:33;20.41;60.70
72650;SHT31;61467;50.674;4.618;2022-10-30T15:28:00;20.32;60.72
72650;SHT31;61467;50.674;4.618;2022-10-30T15:30:29;20.04;61.57
72650;SHT31;61467;50.674;4.618;2022-10-30T15:32:55;20.10;61.43
72650;SHT31;61467;50.674;4.618;2022-10-30T15:35:25;20.06;61.70
72650;SHT31;61467;50.674;4.618;2022-10-30T15:38:02;20.24;61.63
72650;SHT31;61467;50.674;4.618;2022-10-30T15:40:30;20.17;62.26
72650;SHT31;61467;50.674;4.618;2022-10-30T15:43:00;20.10;62.82
72650;SHT31;61467;50.674;4.618;2022-10-30T15:45:31;20.16;63.21
72650;SHT31;61467;50.674;4.618;2022-10-30T15:48:01;19.69;64.72
72650;SHT31;61467;50.674;4.618;2022-10-30T15:50:31;19.28;66.86
72650;SHT31;61467;50.674;4.618;2022-10-30T15:52:58;19.22;67.21
72650;SHT31;61467;50.674;4.618;2022-10-30T15:55:27;18.97;67.99
72650;SHT31;61467;50.674;4.618;2022-10-30T15:57:57;18.91;68.29
72650;SHT31;61467;50.674;4.618;2022-10-30T16:00:26;19.05;68.00